Marianna, FL

2:51 AM CST on February 13, 2016 (GMT -0600)
Marianna Municipal | | Change Station
CLOSE
Current Station
Airport
Location: Marianna,
Elevation: 112 ft
Nearby Weather Stations
Active Advisory: Freeze Watch

Elev 112 ft 30.84 °N, 85.18 °W | Updated 58 minutes ago

Clear
Clear
50 °F
Feels Like 50 °F
N
8
Wind Variable Wind from NW

Today
High -- | Low -- °F
--% Chance of Precip.
Yesterday
High -- | Low -- °F
Precip. -- in
Pressure 30.20 in
Visibility 10.0 miles
Clouds Clear
Dew Point 37 °F
Humidity 61%
Rainfall 0.00 in
Snow Depth Not available.
6:23 AM 5:26 PM
Waxing Crescent, 28% visible
METAR KMAI 130753Z AUTO 32007KT 10SM CLR 10/03 A3021 RMK AO1 SLP227 T01000028
Pressure 30.20 in
Visibility 10.0 miles
Clouds Clear
Dew Point 37 °F
Humidity 61%
Rainfall 0.00 in
Snow Depth Not available.
6:23 AM 5:26 PM
Waxing Crescent, 28% visible
METAR KMAI 130753Z AUTO 32007KT 10SM CLR 10/03 A3021 RMK AO1 SLP227 T01000028

10-Day Weather Forecast

Almanac

Astronomy

Feb. 13, 2016 Rise Set
Actual Time
Civil Twilight
Nautical Twilight
Astronomical Twilight
Moon
Length of Visible Light
Length of Day
Tomorrow will be .
, % of the Moon is Illuminated

Today's Extremes

State Highs State Lows

Community

WunderPhotos

Upload Photos

1,892,536 photos uploaded!

WunderBlog® & News

Nearby

Air Quality

  Air Quality AQ Index Pollutant
Not available.

Snow Depth

Station Depth Elevation

Earthquake Activity

City Distance Mag. Time & Date
Minimum magnitude displayed is 2.5.

Coastal Water Temperatures

Place Temperature

Stations

Nearby Weather Stations

Station Location Temp. Windchill Dew Point Humidity Wind Precip. Elev Updated Type
                   

Watches & Warnings

Freeze Watch
Issued: 2:27 AM CST Feb. 13, 2016 – National Weather Service

... Freeze watch in effect from late tonight through Sunday
morning...

The National Weather Service in Tallahassee has issued a freeze
watch... which is in effect from late tonight through Sunday
morning.

* Temperature... 29 to 32 degrees.

* Duration... 2 to 4 hours.

Precautionary/preparedness actions...

A freeze watch means sub-freezing temperatures are possible.
These conditions could kill crops and other sensitive vegetation.



Godsey